MCO weather

Orlando International Airport
Orlando, Florida, United States

Public forecast

Using degrees Fahrenheit for public forecast. Weather courtesy of forecast.io.

METAR (pilot weather report)

Retrieved 2019/02/17 13:53 UTC (37 minutes ago):

KMCO 171353Z 19006KT 10SM FEW042 FEW250 21/18 A3001 RMK AO2 SLP161 T02060183

TAF (pilot weather forecast)

Retrieved 2019/02/17 12:36 UTC (2 hours ago):

TAF KMCO 171132Z 1712/1818 16003KT P6SM BKN045 TEMPO 1712/1713 6SM BR FEW012 SCT035 FM171400 20008KT P6SM SCT025 SCT040 FM171800 21009KT P6SM SCT040 SCT250 FM180000 19005KT P6SM FEW040 SCT250 FM181300 20007KT P6SM SCT025 BKN100